sensor_id;sensor_type;location;lat;lon;timestamp;pressure;altitude;pressure_sealevel;temperature;humidity
21956;BME280;11142;49.930;8.606;2022-08-03T00:01:43;100090.16;;;21.30;59.79
21956;BME280;11142;49.930;8.606;2022-08-03T00:04:12;100089.81;;;21.17;60.48
21956;BME280;11142;49.930;8.606;2022-08-03T00:06:40;100095.69;;;21.03;61.03
21956;BME280;11142;49.930;8.606;2022-08-03T00:09:09;100089.13;;;20.99;61.35
21956;BME280;11142;49.930;8.606;2022-08-03T00:11:37;100091.06;;;20.97;61.28
21956;BME280;11142;49.930;8.606;2022-08-03T00:14:06;100095.06;;;20.93;61.42
21956;BME280;11142;49.930;8.606;2022-08-03T00:16:34;100090.41;;;20.87;61.00
21956;BME280;11142;49.930;8.606;2022-08-03T00:19:02;100099.78;;;20.81;61.26
21956;BME280;11142;49.930;8.606;2022-08-03T00:21:32;100095.81;;;20.69;62.15
21956;BME280;11142;49.930;8.606;2022-08-03T00:24:00;100086.56;;;20.65;62.22
21956;BME280;11142;49.930;8.606;2022-08-03T00:26:29;100089.06;;;20.66;62.53
21956;BME280;11142;49.930;8.606;2022-08-03T00:28:58;100091.00;;;20.56;63.32
21956;BME280;11142;49.930;8.606;2022-08-03T00:31:26;100092.81;;;20.48;64.02
21956;BME280;11142;49.930;8.606;2022-08-03T00:34:14;100091.47;;;20.44;64.08
21956;BME280;11142;49.930;8.606;2022-08-03T00:36:54;100093.13;;;20.45;63.39
21956;BME280;11142;49.930;8.606;2022-08-03T00:39:22;100082.91;;;20.42;63.31
21956;BME280;11142;49.930;8.606;2022-08-03T00:41:50;100085.50;;;20.34;64.17
21956;BME280;11142;49.930;8.606;2022-08-03T00:44:18;100086.00;;;20.29;64.10
21956;BME280;11142;49.930;8.606;2022-08-03T00:46:46;100083.50;;;20.28;63.37
21956;BME280;11142;49.930;8.606;2022-08-03T00:49:14;100085.44;;;20.26;63.46
21956;BME280;11142;49.930;8.606;2022-08-03T00:51:43;100082.81;;;20.26;63.95
21956;BME280;11142;49.930;8.606;2022-08-03T00:54:12;100078.66;;;20.15;64.04
21956;BME280;11142;49.930;8.606;2022-08-03T00:56:42;100077.50;;;20.17;63.89
21956;BME280;11142;49.930;8.606;2022-08-03T00:59:28;100074.31;;;20.32;63.45
21956;BME280;11142;49.930;8.606;2022-08-03T01:01:56;100074.16;;;20.41;63.19
21956;BME280;11142;49.930;8.606;2022-08-03T01:04:24;100079.25;;;20.43;62.66
21956;BME280;11142;49.930;8.606;2022-08-03T01:06:59;100075.13;;;20.32;62.92
21956;BME280;11142;49.930;8.606;2022-08-03T01:09:35;100073.25;;;20.25;63.27
21956;BME280;11142;49.930;8.606;2022-08-03T01:12:10;100079.50;;;20.24;63.31
21956;BME280;11142;49.930;8.606;2022-08-03T01:14:50;100074.09;;;20.25;62.98
21956;BME280;11142;49.930;8.606;2022-08-03T01:17:24;100068.28;;;20.22;62.90
21956;BME280;11142;49.930;8.606;2022-08-03T01:19:59;100070.94;;;20.22;63.01
21956;BME280;11142;49.930;8.606;2022-08-03T01:22:55;100076.66;;;20.17;63.12
21956;BME280;11142;49.930;8.606;2022-08-03T01:25:35;100072.00;;;20.03;63.70
21956;BME280;11142;49.930;8.606;2022-08-03T01:28:24;100070.00;;;19.97;63.49
21956;BME280;11142;49.930;8.606;2022-08-03T01:31:00;100067.00;;;19.92;63.66
21956;BME280;11142;49.930;8.606;2022-08-03T01:33:34;100067.63;;;19.86;64.15
21956;BME280;11142;49.930;8.606;2022-08-03T01:36:06;100066.97;;;19.84;64.02
21956;BME280;11142;49.930;8.606;2022-08-03T01:38:40;100068.31;;;19.88;64.30
21956;BME280;11142;49.930;8.606;2022-08-03T01:41:14;100067.00;;;19.92;64.18
21956;BME280;11142;49.930;8.606;2022-08-03T01:43:45;100061.09;;;19.90;64.19
21956;BME280;11142;49.930;8.606;2022-08-03T01:46:38;100062.44;;;19.94;64.01
21956;BME280;11142;49.930;8.606;2022-08-03T01:49:15;100057.78;;;19.88;64.11
21956;BME280;11142;49.930;8.606;2022-08-03T01:51:46;100061.50;;;19.77;64.70
21956;BME280;11142;49.930;8.606;2022-08-03T01:54:32;100064.81;;;19.79;64.46
21956;BME280;11142;49.930;8.606;2022-08-03T01:57:02;100061.72;;;19.84;64.38
21956;BME280;11142;49.930;8.606;2022-08-03T01:59:33;100062.94;;;19.97;63.63
21956;BME280;11142;49.930;8.606;2022-08-03T02:02:04;100062.06;;;19.89;64.01
21956;BME280;11142;49.930;8.606;2022-08-03T02:04:54;100062.56;;;19.92;63.31
21956;BME280;11142;49.930;8.606;2022-08-03T02:07:23;100055.50;;;19.93;63.17
21956;BME280;11142;49.930;8.606;2022-08-03T02:09:54;100056.66;;;19.90;63.38
21956;BME280;11142;49.930;8.606;2022-08-03T02:12:24;100057.47;;;19.91;63.30
21956;BME280;11142;49.930;8.606;2022-08-03T02:14:56;100054.97;;;19.81;63.40
21956;BME280;11142;49.930;8.606;2022-08-03T02:17:28;100054.78;;;19.83;63.61
21956;BME280;11142;49.930;8.606;2022-08-03T02:20:07;100059.50;;;19.71;64.25
21956;BME280;11142;49.930;8.606;2022-08-03T02:22:39;100062.66;;;19.31;65.54
21956;BME280;11142;49.930;8.606;2022-08-03T02:25:08;100063.06;;;19.19;66.63
21956;BME280;11142;49.930;8.606;2022-08-03T02:27:38;100060.41;;;19.36;65.90
21956;BME280;11142;49.930;8.606;2022-08-03T02:30:11;100057.53;;;19.47;65.40
21956;BME280;11142;49.930;8.606;2022-08-03T02:32:43;100059.09;;;19.58;65.03
21956;BME280;11142;49.930;8.606;2022-08-03T02:35:17;100061.75;;;19.66;64.59
21956;BME280;11142;49.930;8.606;2022-08-03T02:37:52;100057.31;;;19.67;64.40
21956;BME280;11142;49.930;8.606;2022-08-03T02:40:23;100053.72;;;19.68;64.42
21956;BME280;11142;49.930;8.606;2022-08-03T02:42:57;100057.28;;;19.58;64.77
21956;BME280;11142;49.930;8.606;2022-08-03T02:45:27;100053.81;;;19.58;64.20
21956;BME280;11142;49.930;8.606;2022-08-03T02:47:59;100048.78;;;19.65;63.51
21956;BME280;11142;49.930;8.606;2022-08-03T02:50:30;100052.69;;;19.60;63.65
21956;BME280;11142;49.930;8.606;2022-08-03T02:53:00;100054.44;;;19.52;63.73
21956;BME280;11142;49.930;8.606;2022-08-03T02:55:32;100049.50;;;19.49;63.70
21956;BME280;11142;49.930;8.606;2022-08-03T02:58:09;100047.03;;;19.30;64.76
21956;BME280;11142;49.930;8.606;2022-08-03T03:00:39;100053.91;;;19.05;65.92
21956;BME280;11142;49.930;8.606;2022-08-03T03:03:09;100047.47;;;18.99;66.18
21956;BME280;11142;49.930;8.606;2022-08-03T03:05:39;100045.19;;;19.04;66.37
21956;BME280;11142;49.930;8.606;2022-08-03T03:08:24;100044.13;;;19.15;65.92
21956;BME280;11142;49.930;8.606;2022-08-03T03:10:55;100045.22;;;19.30;65.40
21956;BME280;11142;49.930;8.606;2022-08-03T03:13:26;100041.53;;;19.41;64.73
21956;BME280;11142;49.930;8.606;2022-08-03T03:15:56;100050.00;;;19.35;65.28
21956;BME280;11142;49.930;8.606;2022-08-03T03:18:28;100054.47;;;19.34;65.06
21956;BME280;11142;49.930;8.606;2022-08-03T03:20:58;100055.84;;;19.21;65.43
21956;BME280;11142;49.930;8.606;2022-08-03T03:23:27;100059.00;;;19.06;66.02
21956;BME280;11142;49.930;8.606;2022-08-03T03:25:56;100066.53;;;19.01;66.58
21956;BME280;11142;49.930;8.606;2022-08-03T03:28:28;100057.38;;;19.05;66.78
21956;BME280;11142;49.930;8.606;2022-08-03T03:30:58;100057.44;;;19.14;66.35
21956;BME280;11142;49.930;8.606;2022-08-03T03:33:27;100054.88;;;19.04;66.77
21956;BME280;11142;49.930;8.606;2022-08-03T03:35:57;100069.78;;;18.95;67.05
21956;BME280;11142;49.930;8.606;2022-08-03T03:38:25;100070.00;;;18.84;67.02
21956;BME280;11142;49.930;8.606;2022-08-03T03:40:54;100059.13;;;18.79;67.32
21956;BME280;11142;49.930;8.606;2022-08-03T03:43:23;100061.81;;;18.70;67.88
21956;BME280;11142;49.930;8.606;2022-08-03T03:45:53;100070.06;;;18.57;68.44
21956;BME280;11142;49.930;8.606;2022-08-03T03:48:23;100067.19;;;18.50;68.86
21956;BME280;11142;49.930;8.606;2022-08-03T03:50:53;100061.13;;;18.40;69.57
21956;BME280;11142;49.930;8.606;2022-08-03T03:53:23;100063.88;;;18.48;69.45
21956;BME280;11142;49.930;8.606;2022-08-03T03:55:52;100068.94;;;18.60;69.11
21956;BME280;11142;49.930;8.606;2022-08-03T03:58:29;100069.53;;;18.71;68.76
21956;BME280;11142;49.930;8.606;2022-08-03T04:00:58;100065.41;;;18.69;68.79
21956;BME280;11142;49.930;8.606;2022-08-03T04:03:26;100057.28;;;18.62;69.24
21956;BME280;11142;49.930;8.606;2022-08-03T04:05:57;100062.19;;;18.57;69.73
21956;BME280;11142;49.930;8.606;2022-08-03T04:08:42;100058.00;;;18.64;69.74
21956;BME280;11142;49.930;8.606;2022-08-03T04:11:31;100057.16;;;18.64;69.01
21956;BME280;11142;49.930;8.606;2022-08-03T04:14:05;100060.09;;;18.78;68.10
21956;BME280;11142;49.930;8.606;2022-08-03T04:16:36;100063.97;;;18.74;67.61
21956;BME280;11142;49.930;8.606;2022-08-03T04:19:12;100059.19;;;18.87;67.30
21956;BME280;11142;49.930;8.606;2022-08-03T04:21:50;100051.72;;;19.00;67.06
21956;BME280;11142;49.930;8.606;2022-08-03T04:24:19;100055.22;;;19.27;66.01
21956;BME280;11142;49.930;8.606;2022-08-03T04:26:52;100059.25;;;19.56;65.14
21956;BME280;11142;49.930;8.606;2022-08-03T04:29:23;100060.53;;;19.78;64.15
21956;BME280;11142;49.930;8.606;2022-08-03T04:31:53;100057.63;;;19.89;63.64
21956;BME280;11142;49.930;8.606;2022-08-03T04:34:22;100060.00;;;20.00;63.19
21956;BME280;11142;49.930;8.606;2022-08-03T04:36:56;100061.88;;;20.24;62.80
21956;BME280;11142;49.930;8.606;2022-08-03T04:39:26;100057.84;;;20.38;61.67
21956;BME280;11142;49.930;8.606;2022-08-03T04:42:00;100064.78;;;20.55;61.63
21956;BME280;11142;49.930;8.606;2022-08-03T04:44:36;100067.28;;;20.64;61.02
21956;BME280;11142;49.930;8.606;2022-08-03T04:47:06;100077.56;;;20.92;60.32
21956;BME280;11142;49.930;8.606;2022-08-03T04:49:35;100071.16;;;21.27;59.26
21956;BME280;11142;49.930;8.606;2022-08-03T04:52:06;100071.50;;;21.40;58.10
21956;BME280;11142;49.930;8.606;2022-08-03T04:54:39;100072.13;;;21.58;57.48
21956;BME280;11142;49.930;8.606;2022-08-03T04:57:08;100083.78;;;21.88;56.91
21956;BME280;11142;49.930;8.606;2022-08-03T04:59:48;100092.84;;;22.40;54.70
21956;BME280;11142;49.930;8.606;2022-08-03T05:02:29;100089.50;;;22.46;54.43
21956;BME280;11142;49.930;8.606;2022-08-03T05:04:58;100091.59;;;21.65;57.19
21956;BME280;11142;49.930;8.606;2022-08-03T05:07:27;100089.13;;;21.47;58.39
21956;BME280;11142;49.930;8.606;2022-08-03T05:10:03;100093.47;;;22.11;56.16
21956;BME280;11142;49.930;8.606;2022-08-03T05:12:42;100093.25;;;22.60;54.15
21956;BME280;11142;49.930;8.606;2022-08-03T05:15:10;100100.22;;;22.84;53.28
21956;BME280;11142;49.930;8.606;2022-08-03T05:17:39;100100.22;;;23.06;52.62
21956;BME280;11142;49.930;8.606;2022-08-03T05:20:08;100096.03;;;23.35;52.22
21956;BME280;11142;49.930;8.606;2022-08-03T05:22:38;100098.41;;;23.67;50.88
21956;BME280;11142;49.930;8.606;2022-08-03T05:25:06;100103.63;;;23.90;50.05
21956;BME280;11142;49.930;8.606;2022-08-03T05:27:44;100107.56;;;24.08;49.45
21956;BME280;11142;49.930;8.606;2022-08-03T05:30:13;100113.06;;;24.36;49.05
21956;BME280;11142;49.930;8.606;2022-08-03T05:33:01;100101.00;;;24.33;48.86
21956;BME280;11142;49.930;8.606;2022-08-03T05:35:29;100107.22;;;24.41;48.67
21956;BME280;11142;49.930;8.606;2022-08-03T05:38:19;100101.66;;;24.21;49.36
21956;BME280;11142;49.930;8.606;2022-08-03T05:40:55;100106.75;;;23.93;49.96
21956;BME280;11142;49.930;8.606;2022-08-03T05:43:43;100112.69;;;24.54;48.59
21956;BME280;11142;49.930;8.606;2022-08-03T05:46:11;100109.22;;;24.89;47.51
21956;BME280;11142;49.930;8.606;2022-08-03T05:48:40;100110.88;;;25.11;47.25
21956;BME280;11142;49.930;8.606;2022-08-03T05:51:08;100113.69;;;25.31;46.56
21956;BME280;11142;49.930;8.606;2022-08-03T05:53:39;100111.31;;;25.64;45.53
21956;BME280;11142;49.930;8.606;2022-08-03T05:56:08;100110.38;;;25.71;45.25
21956;BME280;11142;49.930;8.606;2022-08-03T05:58:41;100113.53;;;25.11;46.30
21956;BME280;11142;49.930;8.606;2022-08-03T06:01:09;100114.22;;;24.48;48.33
21956;BME280;11142;49.930;8.606;2022-08-03T06:03:40;100109.72;;;24.63;48.38
21956;BME280;11142;49.930;8.606;2022-08-03T06:06:08;100117.09;;;25.46;46.75
21956;BME280;11142;49.930;8.606;2022-08-03T06:08:39;100120.41;;;26.45;44.43
21956;BME280;11142;49.930;8.606;2022-08-03T06:11:07;100122.66;;;26.95;43.00
21956;BME280;11142;49.930;8.606;2022-08-03T06:13:37;100121.00;;;26.94;42.29
21956;BME280;11142;49.930;8.606;2022-08-03T06:16:05;100130.03;;;27.13;41.73
21956;BME280;11142;49.930;8.606;2022-08-03T06:18:33;100131.47;;;27.09;42.31
21956;BME280;11142;49.930;8.606;2022-08-03T06:21:01;100127.41;;;27.78;40.23
21956;BME280;11142;49.930;8.606;2022-08-03T06:23:44;100126.97;;;28.65;39.08
21956;BME280;11142;49.930;8.606;2022-08-03T06:26:25;100123.19;;;29.17;37.50
21956;BME280;11142;49.930;8.606;2022-08-03T06:28:57;100124.72;;;29.81;36.82
21956;BME280;11142;49.930;8.606;2022-08-03T06:31:29;100124.38;;;30.32;35.66
21956;BME280;11142;49.930;8.606;2022-08-03T06:34:03;100130.25;;;30.59;34.92
21956;BME280;11142;49.930;8.606;2022-08-03T06:36:52;100120.84;;;30.68;35.31
21956;BME280;11142;49.930;8.606;2022-08-03T06:39:28;100126.63;;;31.13;34.29
21956;BME280;11142;49.930;8.606;2022-08-03T06:41:56;100138.38;;;31.53;33.70
21956;BME280;11142;49.930;8.606;2022-08-03T06:44:24;100140.25;;;31.11;33.91
21956;BME280;11142;49.930;8.606;2022-08-03T06:46:52;100127.44;;;31.13;34.18
21956;BME280;11142;49.930;8.606;2022-08-03T06:49:22;100119.84;;;29.96;36.03
21956;BME280;11142;49.930;8.606;2022-08-03T06:51:50;100131.75;;;29.75;36.54
21956;BME280;11142;49.930;8.606;2022-08-03T06:54:34;100123.03;;;29.37;37.00
21956;BME280;11142;49.930;8.606;2022-08-03T06:57:03;100125.22;;;28.84;37.83
21956;BME280;11142;49.930;8.606;2022-08-03T06:59:31;100122.84;;;28.63;38.61
21956;BME280;11142;49.930;8.606;2022-08-03T07:02:19;100121.00;;;28.19;40.14
21956;BME280;11142;49.930;8.606;2022-08-03T07:04:49;100125.00;;;28.47;39.94
21956;BME280;11142;49.930;8.606;2022-08-03T07:07:17;100130.69;;;29.83;36.79
21956;BME280;11142;49.930;8.606;2022-08-03T07:09:47;100126.03;;;30.81;35.08
21956;BME280;11142;49.930;8.606;2022-08-03T07:12:24;100137.56;;;31.76;34.32
21956;BME280;11142;49.930;8.606;2022-08-03T07:14:53;100132.66;;;32.19;32.03
21956;BME280;11142;49.930;8.606;2022-08-03T07:17:27;100138.09;;;31.43;33.52
21956;BME280;11142;49.930;8.606;2022-08-03T07:19:55;100131.34;;;31.40;33.31
21956;BME280;11142;49.930;8.606;2022-08-03T07:22:23;100132.63;;;29.69;35.58
21956;BME280;11142;49.930;8.606;2022-08-03T07:24:53;100122.78;;;28.82;37.12
21956;BME280;11142;49.930;8.606;2022-08-03T07:27:21;100128.91;;;30.13;35.22
21956;BME280;11142;49.930;8.606;2022-08-03T07:29:49;100132.53;;;29.58;35.84
21956;BME280;11142;49.930;8.606;2022-08-03T07:32:18;100126.91;;;28.78;36.96
21956;BME280;11142;49.930;8.606;2022-08-03T07:34:46;100129.81;;;28.64;37.17
21956;BME280;11142;49.930;8.606;2022-08-03T07:37:14;100132.88;;;30.11;34.54
21956;BME280;11142;49.930;8.606;2022-08-03T07:39:42;100135.94;;;31.98;31.46
21956;BME280;11142;49.930;8.606;2022-08-03T07:42:12;100150.06;;;31.93;31.17
21956;BME280;11142;49.930;8.606;2022-08-03T07:44:41;100147.91;;;32.82;30.41
21956;BME280;11142;49.930;8.606;2022-08-03T07:47:09;100146.13;;;33.82;28.01
21956;BME280;11142;49.930;8.606;2022-08-03T07:49:48;100144.59;;;32.51;30.41
21956;BME280;11142;49.930;8.606;2022-08-03T07:52:16;100143.94;;;33.79;29.14
21956;BME280;11142;49.930;8.606;2022-08-03T07:55:02;100154.47;;;35.69;26.66
21956;BME280;11142;49.930;8.606;2022-08-03T07:57:33;100152.25;;;36.60;25.84
21956;BME280;11142;49.930;8.606;2022-08-03T08:00:03;100152.66;;;37.70;24.93
21956;BME280;11142;49.930;8.606;2022-08-03T08:02:38;100151.03;;;37.69;23.46
21956;BME280;11142;49.930;8.606;2022-08-03T08:05:06;100149.78;;;38.31;23.44
21956;BME280;11142;49.930;8.606;2022-08-03T08:07:37;100154.50;;;39.13;22.98
21956;BME280;11142;49.930;8.606;2022-08-03T08:10:07;100161.88;;;39.75;22.80
21956;BME280;11142;49.930;8.606;2022-08-03T08:12:38;100154.72;;;40.74;22.02
21956;BME280;11142;49.930;8.606;2022-08-03T08:15:07;100156.59;;;41.62;21.25
21956;BME280;11142;49.930;8.606;2022-08-03T08:17:44;100162.09;;;42.44;20.12
21956;BME280;11142;49.930;8.606;2022-08-03T08:20:15;100160.16;;;42.71;19.79
21956;BME280;11142;49.930;8.606;2022-08-03T08:22:55;100147.34;;;41.12;20.22
21956;BME280;11142;49.930;8.606;2022-08-03T08:25:27;100144.25;;;39.72;21.91
21956;BME280;11142;49.930;8.606;2022-08-03T08:27:57;100143.28;;;38.86;23.04
21956;BME280;11142;49.930;8.606;2022-08-03T08:30:48;100157.59;;;40.64;22.08
21956;BME280;11142;49.930;8.606;2022-08-03T08:33:16;100141.03;;;38.49;22.30
21956;BME280;11142;49.930;8.606;2022-08-03T08:35:51;100138.66;;;38.91;23.21
21956;BME280;11142;49.930;8.606;2022-08-03T08:38:19;100130.72;;;37.16;23.40
21956;BME280;11142;49.930;8.606;2022-08-03T08:40:48;100139.22;;;39.22;22.68
21956;BME280;11142;49.930;8.606;2022-08-03T08:43:17;100147.75;;;40.44;20.63
21956;BME280;11142;49.930;8.606;2022-08-03T08:45:48;100141.63;;;42.19;19.83
21956;BME280;11142;49.930;8.606;2022-08-03T08:48:20;100152.25;;;43.50;18.26
21956;BME280;11142;49.930;8.606;2022-08-03T08:50:51;100150.88;;;44.01;17.45
21956;BME280;11142;49.930;8.606;2022-08-03T08:53:20;100151.50;;;44.46;16.82
21956;BME280;11142;49.930;8.606;2022-08-03T08:55:54;100156.50;;;44.52;16.30
21956;BME280;11142;49.930;8.606;2022-08-03T08:58:33;100144.88;;;43.90;17.06
21956;BME280;11142;49.930;8.606;2022-08-03T09:01:04;100136.84;;;43.54;17.35
21956;BME280;11142;49.930;8.606;2022-08-03T09:03:33;100134.13;;;42.87;17.72
21956;BME280;11142;49.930;8.606;2022-08-03T09:06:02;100138.88;;;42.32;18.50
21956;BME280;11142;49.930;8.606;2022-08-03T09:08:31;100141.19;;;42.39;18.44
21956;BME280;11142;49.930;8.606;2022-08-03T09:10:59;100132.22;;;42.25;17.81
21956;BME280;11142;49.930;8.606;2022-08-03T09:13:29;100124.81;;;42.12;18.29
21956;BME280;11142;49.930;8.606;2022-08-03T09:16:12;100120.75;;;41.22;18.33
21956;BME280;11142;49.930;8.606;2022-08-03T09:18:41;100120.81;;;40.00;20.00
21956;BME280;11142;49.930;8.606;2022-08-03T09:21:17;100123.66;;;40.14;19.56
21956;BME280;11142;49.930;8.606;2022-08-03T09:24:04;100121.06;;;40.27;19.86
21956;BME280;11142;49.930;8.606;2022-08-03T09:26:49;100118.53;;;38.97;21.21
21956;BME280;11142;49.930;8.606;2022-08-03T09:29:21;100110.28;;;38.63;21.42
21956;BME280;11142;49.930;8.606;2022-08-03T09:31:59;100121.69;;;39.04;21.25
21956;BME280;11142;49.930;8.606;2022-08-03T09:34:28;100116.47;;;38.74;20.91
21956;BME280;11142;49.930;8.606;2022-08-03T09:36:57;100118.28;;;39.27;20.58
21956;BME280;11142;49.930;8.606;2022-08-03T09:39:26;100103.31;;;37.68;22.19
21956;BME280;11142;49.930;8.606;2022-08-03T09:42:09;100106.81;;;37.94;21.76
21956;BME280;11142;49.930;8.606;2022-08-03T09:44:44;100113.28;;;38.03;21.98
21956;BME280;11142;49.930;8.606;2022-08-03T09:47:14;100108.00;;;38.86;21.53
21956;BME280;11142;49.930;8.606;2022-08-03T09:49:56;100103.59;;;38.51;21.40
21956;BME280;11142;49.930;8.606;2022-08-03T09:52:30;100107.34;;;39.04;21.83
21956;BME280;11142;49.930;8.606;2022-08-03T09:55:17;100108.44;;;40.13;20.50
21956;BME280;11142;49.930;8.606;2022-08-03T09:58:09;100109.84;;;40.71;19.70
21956;BME280;11142;49.930;8.606;2022-08-03T10:00:55;100112.91;;;40.83;19.14
21956;BME280;11142;49.930;8.606;2022-08-03T10:03:25;100107.75;;;40.82;19.33
21956;BME280;11142;49.930;8.606;2022-08-03T10:05:53;100104.09;;;41.24;18.13
21956;BME280;11142;49.930;8.606;2022-08-03T10:08:26;100109.13;;;40.00;19.12
21956;BME280;11142;49.930;8.606;2022-08-03T10:10:54;100110.75;;;40.24;19.54
21956;BME280;11142;49.930;8.606;2022-08-03T10:13:24;100101.47;;;39.25;20.30
21956;BME280;11142;49.930;8.606;2022-08-03T10:15:54;100097.06;;;37.83;21.07
21956;BME280;11142;49.930;8.606;2022-08-03T10:18:41;100093.69;;;38.75;20.71
21956;BME280;11142;49.930;8.606;2022-08-03T10:21:12;100088.09;;;38.56;20.85
21956;BME280;11142;49.930;8.606;2022-08-03T10:23:43;100089.78;;;39.20;20.73
21956;BME280;11142;49.930;8.606;2022-08-03T10:26:15;100093.28;;;41.19;18.99
21956;BME280;11142;49.930;8.606;2022-08-03T10:28:48;100103.38;;;43.04;16.82
21956;BME280;11142;49.930;8.606;2022-08-03T10:31:19;100098.53;;;44.84;15.11
21956;BME280;11142;49.930;8.606;2022-08-03T10:33:50;100099.28;;;45.74;14.63
21956;BME280;11142;49.930;8.606;2022-08-03T10:36:22;100100.75;;;47.05;14.38
21956;BME280;11142;49.930;8.606;2022-08-03T10:38:51;100096.25;;;47.33;13.67
21956;BME280;11142;49.930;8.606;2022-08-03T10:41:20;100102.59;;;48.98;12.75
21956;BME280;11142;49.930;8.606;2022-08-03T10:43:50;100098.63;;;49.27;12.25
21956;BME280;11142;49.930;8.606;2022-08-03T10:46:21;100095.16;;;48.07;13.02
21956;BME280;11142;49.930;8.606;2022-08-03T10:48:49;100087.34;;;49.32;13.29
21956;BME280;11142;49.930;8.606;2022-08-03T10:51:20;100086.81;;;50.24;12.25
21956;BME280;11142;49.930;8.606;2022-08-03T10:53:48;100090.47;;;50.85;11.89
21956;BME280;11142;49.930;8.606;2022-08-03T10:56:38;100088.28;;;50.56;12.17
21956;BME280;11142;49.930;8.606;2022-08-03T10:59:57;100076.66;;;49.77;12.69
21956;BME280;11142;49.930;8.606;2022-08-03T11:03:02;100062.56;;;48.09;13.42
21956;BME280;11142;49.930;8.606;2022-08-03T11:05:34;100062.56;;;46.17;14.66
21956;BME280;11142;49.930;8.606;2022-08-03T11:08:33;100032.19;;;39.23;20.30
21956;BME280;11142;49.930;8.606;2022-08-03T11:11:24;100014.06;;;35.01;24.71
21956;BME280;11142;49.930;8.606;2022-08-03T11:13:57;100010.47;;;33.50;26.64
21956;BME280;11142;49.930;8.606;2022-08-03T11:16:26;100007.31;;;33.75;26.88
21956;BME280;11142;49.930;8.606;2022-08-03T11:18:57;100002.94;;;33.90;26.03
21956;BME280;11142;49.930;8.606;2022-08-03T11:21:57;100010.56;;;35.00;25.55
21956;BME280;11142;49.930;8.606;2022-08-03T11:24:56;100017.38;;;36.02;24.16
21956;BME280;11142;49.930;8.606;2022-08-03T11:27:26;100010.47;;;35.22;25.17
21956;BME280;11142;49.930;8.606;2022-08-03T11:29:57;100014.00;;;36.92;23.81
21956;BME280;11142;49.930;8.606;2022-08-03T11:32:51;100030.94;;;40.48;20.47
21956;BME280;11142;49.930;8.606;2022-08-03T11:35:23;100041.25;;;44.06;17.30
21956;BME280;11142;49.930;8.606;2022-08-03T11:38:18;100055.81;;;47.45;14.41
21956;BME280;11142;49.930;8.606;2022-08-03T11:40:51;100059.31;;;49.96;12.87
21956;BME280;11142;49.930;8.606;2022-08-03T11:43:44;100062.09;;;51.83;11.39
21956;BME280;11142;49.930;8.606;2022-08-03T11:46:14;100064.91;;;52.13;11.54
21956;BME280;11142;49.930;8.606;2022-08-03T11:49:02;100072.78;;;54.20;10.08
21956;BME280;11142;49.930;8.606;2022-08-03T11:51:38;100062.59;;;53.80;9.62
21956;BME280;11142;49.930;8.606;2022-08-03T11:54:06;100064.69;;;55.40;8.98
21956;BME280;11142;49.930;8.606;2022-08-03T11:56:45;100068.66;;;55.11;9.52
21956;BME280;11142;49.930;8.606;2022-08-03T11:59:14;100046.66;;;52.12;10.79
21956;BME280;11142;49.930;8.606;2022-08-03T12:01:48;100038.31;;;50.26;11.62
21956;BME280;11142;49.930;8.606;2022-08-03T12:04:17;100041.13;;;52.78;11.09
21956;BME280;11142;49.930;8.606;2022-08-03T12:06:58;100033.75;;;49.64;12.01
21956;BME280;11142;49.930;8.606;2022-08-03T12:09:26;100017.28;;;49.21;12.34
21956;BME280;11142;49.930;8.606;2022-08-03T12:11:55;100002.53;;;43.64;16.76
21956;BME280;11142;49.930;8.606;2022-08-03T12:14:29;100003.03;;;45.50;15.13
21956;BME280;11142;49.930;8.606;2022-08-03T12:17:18;100012.97;;;49.70;12.62
21956;BME280;11142;49.930;8.606;2022-08-03T12:19:46;100009.16;;;47.49;13.81
21956;BME280;11142;49.930;8.606;2022-08-03T12:22:30;100023.19;;;51.72;11.62
21956;BME280;11142;49.930;8.606;2022-08-03T12:24:58;100028.00;;;51.79;10.91
21956;BME280;11142;49.930;8.606;2022-08-03T12:27:26;100008.66;;;47.95;13.68
21956;BME280;11142;49.930;8.606;2022-08-03T12:29:57;100015.84;;;51.87;11.15
21956;BME280;11142;49.930;8.606;2022-08-03T12:32:26;100014.28;;;53.33;10.15
21956;BME280;11142;49.930;8.606;2022-08-03T12:34:57;100032.78;;;55.87;8.70
21956;BME280;11142;49.930;8.606;2022-08-03T12:37:29;100035.38;;;56.98;8.43
21956;BME280;11142;49.930;8.606;2022-08-03T12:39:59;100040.53;;;57.48;8.26
21956;BME280;11142;49.930;8.606;2022-08-03T12:42:37;100038.13;;;58.18;7.65
21956;BME280;11142;49.930;8.606;2022-08-03T12:45:22;100035.06;;;58.09;8.00
21956;BME280;11142;49.930;8.606;2022-08-03T12:47:52;100047.91;;;58.63;7.44
21956;BME280;11142;49.930;8.606;2022-08-03T12:50:25;100028.72;;;58.88;7.45
21956;BME280;11142;49.930;8.606;2022-08-03T12:52:56;100032.81;;;57.63;8.54
21956;BME280;11142;49.930;8.606;2022-08-03T12:55:25;100025.53;;;57.31;8.04
21956;BME280;11142;49.930;8.606;2022-08-03T12:58:28;100024.78;;;57.98;7.82
21956;BME280;11142;49.930;8.606;2022-08-03T13:00:59;100014.97;;;55.10;9.01
21956;BME280;11142;49.930;8.606;2022-08-03T13:03:39;100007.22;;;54.19;9.43
21956;BME280;11142;49.930;8.606;2022-08-03T13:06:12;100013.28;;;55.87;8.99
21956;BME280;11142;49.930;8.606;2022-08-03T13:08:42;100005.03;;;52.71;10.68
21956;BME280;11142;49.930;8.606;2022-08-03T13:11:26;99995.16;;;50.03;11.52
21956;BME280;11142;49.930;8.606;2022-08-03T13:14:15;99973.97;;;46.73;13.92
21956;BME280;11142;49.930;8.606;2022-08-03T13:16:46;99974.94;;;46.44;14.05
21956;BME280;11142;49.930;8.606;2022-08-03T13:19:14;99965.50;;;40.39;19.04
21956;BME280;11142;49.930;8.606;2022-08-03T13:21:43;99952.69;;;38.89;20.77
21956;BME280;11142;49.930;8.606;2022-08-03T13:24:32;99975.28;;;43.42;16.98